sensor_id;sensor_type;location;lat;lon;timestamp;P1;durP1;ratioP1;P2;durP2;ratioP2
11620;SDS011;5866;49.094;11.900;2022-12-20T00:01:49;49.13;;;26.13;;
11620;SDS011;5866;49.094;11.900;2022-12-20T00:04:16;53.50;;;30.37;;
11620;SDS011;5866;49.094;11.900;2022-12-20T00:06:44;45.23;;;28.70;;
11620;SDS011;5866;49.094;11.900;2022-12-20T00:09:13;49.60;;;29.60;;
11620;SDS011;5866;49.094;11.900;2022-12-20T00:11:40;51.00;;;29.87;;
11620;SDS011;5866;49.094;11.900;2022-12-20T00:14:08;52.87;;;30.07;;
11620;SDS011;5866;49.094;11.900;2022-12-20T00:16:36;47.53;;;28.43;;
11620;SDS011;5866;49.094;11.900;2022-12-20T00:19:04;52.50;;;32.87;;
11620;SDS011;5866;49.094;11.900;2022-12-20T00:21:33;46.60;;;28.23;;
11620;SDS011;5866;49.094;11.900;2022-12-20T00:24:01;53.50;;;31.67;;
11620;SDS011;5866;49.094;11.900;2022-12-20T00:26:31;51.10;;;29.80;;
11620;SDS011;5866;49.094;11.900;2022-12-20T00:29:01;47.03;;;30.97;;
11620;SDS011;5866;49.094;11.900;2022-12-20T00:31:28;52.70;;;30.50;;
11620;SDS011;5866;49.094;11.900;2022-12-20T00:33:58;48.77;;;29.63;;
11620;SDS011;5866;49.094;11.900;2022-12-20T00:36:27;50.30;;;30.87;;
11620;SDS011;5866;49.094;11.900;2022-12-20T00:38:56;50.47;;;30.97;;
11620;SDS011;5866;49.094;11.900;2022-12-20T00:41:25;49.77;;;29.97;;
11620;SDS011;5866;49.094;11.900;2022-12-20T00:43:55;49.27;;;29.27;;
11620;SDS011;5866;49.094;11.900;2022-12-20T00:46:23;49.47;;;29.87;;
11620;SDS011;5866;49.094;11.900;2022-12-20T00:48:51;48.30;;;31.53;;
11620;SDS011;5866;49.094;11.900;2022-12-20T00:51:20;52.27;;;30.17;;
11620;SDS011;5866;49.094;11.900;2022-12-20T00:53:49;45.20;;;25.77;;
11620;SDS011;5866;49.094;11.900;2022-12-20T00:56:17;49.27;;;29.67;;
11620;SDS011;5866;49.094;11.900;2022-12-20T00:58:45;46.10;;;28.43;;
11620;SDS011;5866;49.094;11.900;2022-12-20T01:01:17;43.77;;;26.87;;
11620;SDS011;5866;49.094;11.900;2022-12-20T01:03:46;42.07;;;25.63;;
11620;SDS011;5866;49.094;11.900;2022-12-20T01:06:14;46.00;;;28.73;;
11620;SDS011;5866;49.094;11.900;2022-12-20T01:08:42;43.77;;;25.90;;
11620;SDS011;5866;49.094;11.900;2022-12-20T01:11:10;44.60;;;25.93;;
11620;SDS011;5866;49.094;11.900;2022-12-20T01:13:41;48.80;;;27.17;;
11620;SDS011;5866;49.094;11.900;2022-12-20T01:16:11;51.10;;;28.10;;
11620;SDS011;5866;49.094;11.900;2022-12-20T01:18:42;44.23;;;28.47;;
11620;SDS011;5866;49.094;11.900;2022-12-20T01:21:10;46.57;;;29.03;;
11620;SDS011;5866;49.094;11.900;2022-12-20T01:23:38;48.43;;;29.77;;
11620;SDS011;5866;49.094;11.900;2022-12-20T01:26:09;46.37;;;29.37;;
11620;SDS011;5866;49.094;11.900;2022-12-20T01:28:39;50.73;;;29.73;;
11620;SDS011;5866;49.094;11.900;2022-12-20T01:31:09;50.60;;;30.07;;
11620;SDS011;5866;49.094;11.900;2022-12-20T01:33:38;49.93;;;30.70;;
11620;SDS011;5866;49.094;11.900;2022-12-20T01:36:09;48.67;;;29.03;;
11620;SDS011;5866;49.094;11.900;2022-12-20T01:38:37;46.43;;;29.17;;
11620;SDS011;5866;49.094;11.900;2022-12-20T01:41:05;47.00;;;28.43;;
11620;SDS011;5866;49.094;11.900;2022-12-20T01:43:46;50.30;;;28.30;;
11620;SDS011;5866;49.094;11.900;2022-12-20T01:46:16;43.23;;;25.87;;
11620;SDS011;5866;49.094;11.900;2022-12-20T01:48:45;43.73;;;27.63;;
11620;SDS011;5866;49.094;11.900;2022-12-20T01:51:19;49.70;;;28.03;;
11620;SDS011;5866;49.094;11.900;2022-12-20T01:53:50;43.03;;;25.57;;
11620;SDS011;5866;49.094;11.900;2022-12-20T01:56:22;42.40;;;23.43;;
11620;SDS011;5866;49.094;11.900;2022-12-20T01:58:50;51.20;;;29.57;;
11620;SDS011;5866;49.094;11.900;2022-12-20T02:01:19;49.03;;;27.03;;
11620;SDS011;5866;49.094;11.900;2022-12-20T02:03:48;48.63;;;28.07;;
11620;SDS011;5866;49.094;11.900;2022-12-20T02:06:19;47.17;;;30.40;;
11620;SDS011;5866;49.094;11.900;2022-12-20T02:08:51;49.60;;;30.00;;
11620;SDS011;5866;49.094;11.900;2022-12-20T02:11:23;50.37;;;28.57;;
11620;SDS011;5866;49.094;11.900;2022-12-20T02:14:06;50.53;;;29.17;;
11620;SDS011;5866;49.094;11.900;2022-12-20T02:16:42;49.60;;;29.40;;
11620;SDS011;5866;49.094;11.900;2022-12-20T02:19:29;52.07;;;29.13;;
11620;SDS011;5866;49.094;11.900;2022-12-20T02:22:21;51.40;;;30.47;;
11620;SDS011;5866;49.094;11.900;2022-12-20T02:25:03;47.67;;;29.53;;
11620;SDS011;5866;49.094;11.900;2022-12-20T02:27:50;44.83;;;28.20;;
11620;SDS011;5866;49.094;11.900;2022-12-20T02:30:25;50.20;;;28.37;;
11620;SDS011;5866;49.094;11.900;2022-12-20T02:32:58;52.97;;;30.83;;
11620;SDS011;5866;49.094;11.900;2022-12-20T02:35:27;44.60;;;26.43;;
11620;SDS011;5866;49.094;11.900;2022-12-20T02:37:57;60.90;;;29.57;;
11620;SDS011;5866;49.094;11.900;2022-12-20T02:40:27;50.10;;;27.17;;
11620;SDS011;5866;49.094;11.900;2022-12-20T02:42:59;47.53;;;28.10;;
11620;SDS011;5866;49.094;11.900;2022-12-20T02:45:31;50.47;;;27.87;;
11620;SDS011;5866;49.094;11.900;2022-12-20T02:48:02;48.53;;;28.73;;
11620;SDS011;5866;49.094;11.900;2022-12-20T02:50:34;48.70;;;29.37;;
11620;SDS011;5866;49.094;11.900;2022-12-20T02:53:04;48.70;;;28.27;;
11620;SDS011;5866;49.094;11.900;2022-12-20T02:55:40;45.07;;;23.67;;
11620;SDS011;5866;49.094;11.900;2022-12-20T02:58:13;48.63;;;27.67;;
11620;SDS011;5866;49.094;11.900;2022-12-20T03:00:47;51.50;;;27.73;;
11620;SDS011;5866;49.094;11.900;2022-12-20T03:03:17;52.10;;;30.30;;
11620;SDS011;5866;49.094;11.900;2022-12-20T03:05:52;51.63;;;29.00;;
11620;SDS011;5866;49.094;11.900;2022-12-20T03:08:21;53.13;;;28.93;;
11620;SDS011;5866;49.094;11.900;2022-12-20T03:10:50;54.43;;;30.13;;
11620;SDS011;5866;49.094;11.900;2022-12-20T03:13:19;48.23;;;28.03;;
11620;SDS011;5866;49.094;11.900;2022-12-20T03:15:49;53.57;;;29.80;;
11620;SDS011;5866;49.094;11.900;2022-12-20T03:18:17;49.23;;;28.20;;
11620;SDS011;5866;49.094;11.900;2022-12-20T03:20:44;48.83;;;28.23;;
11620;SDS011;5866;49.094;11.900;2022-12-20T03:23:12;53.13;;;30.00;;
11620;SDS011;5866;49.094;11.900;2022-12-20T03:25:40;53.47;;;30.93;;
11620;SDS011;5866;49.094;11.900;2022-12-20T03:28:07;48.63;;;28.17;;
11620;SDS011;5866;49.094;11.900;2022-12-20T03:30:35;49.07;;;28.40;;
11620;SDS011;5866;49.094;11.900;2022-12-20T03:33:04;49.93;;;27.37;;
11620;SDS011;5866;49.094;11.900;2022-12-20T03:35:31;49.90;;;27.83;;
11620;SDS011;5866;49.094;11.900;2022-12-20T03:37:59;45.27;;;27.60;;
11620;SDS011;5866;49.094;11.900;2022-12-20T03:40:27;53.13;;;28.37;;
11620;SDS011;5866;49.094;11.900;2022-12-20T03:42:54;51.63;;;30.47;;
11620;SDS011;5866;49.094;11.900;2022-12-20T03:45:22;48.33;;;25.47;;
11620;SDS011;5866;49.094;11.900;2022-12-20T03:47:49;45.87;;;28.67;;
11620;SDS011;5866;49.094;11.900;2022-12-20T03:50:18;55.37;;;31.17;;
11620;SDS011;5866;49.094;11.900;2022-12-20T03:52:46;51.07;;;28.90;;
11620;SDS011;5866;49.094;11.900;2022-12-20T03:55:13;45.07;;;28.10;;
11620;SDS011;5866;49.094;11.900;2022-12-20T03:57:41;47.10;;;28.57;;
11620;SDS011;5866;49.094;11.900;2022-12-20T04:00:09;49.47;;;27.80;;
11620;SDS011;5866;49.094;11.900;2022-12-20T04:02:37;46.63;;;28.37;;
11620;SDS011;5866;49.094;11.900;2022-12-20T04:05:06;53.63;;;28.73;;
11620;SDS011;5866;49.094;11.900;2022-12-20T04:07:35;49.43;;;29.30;;
11620;SDS011;5866;49.094;11.900;2022-12-20T04:10:03;57.37;;;29.40;;
11620;SDS011;5866;49.094;11.900;2022-12-20T04:12:32;52.77;;;30.60;;
11620;SDS011;5866;49.094;11.900;2022-12-20T04:14:59;52.73;;;27.60;;
11620;SDS011;5866;49.094;11.900;2022-12-20T04:17:27;50.57;;;28.13;;
11620;SDS011;5866;49.094;11.900;2022-12-20T04:19:54;50.37;;;28.33;;
11620;SDS011;5866;49.094;11.900;2022-12-20T04:22:22;49.43;;;27.70;;
11620;SDS011;5866;49.094;11.900;2022-12-20T04:24:51;48.57;;;27.13;;
11620;SDS011;5866;49.094;11.900;2022-12-20T04:27:18;49.23;;;27.53;;
11620;SDS011;5866;49.094;11.900;2022-12-20T04:29:46;49.20;;;26.60;;
11620;SDS011;5866;49.094;11.900;2022-12-20T04:32:13;52.90;;;27.63;;
11620;SDS011;5866;49.094;11.900;2022-12-20T04:34:41;55.77;;;29.60;;
11620;SDS011;5866;49.094;11.900;2022-12-20T04:37:08;54.70;;;30.33;;
11620;SDS011;5866;49.094;11.900;2022-12-20T04:39:36;52.10;;;28.63;;
11620;SDS011;5866;49.094;11.900;2022-12-20T04:42:05;57.13;;;36.30;;
11620;SDS011;5866;49.094;11.900;2022-12-20T04:44:32;51.67;;;36.27;;
11620;SDS011;5866;49.094;11.900;2022-12-20T04:47:00;56.50;;;41.40;;
11620;SDS011;5866;49.094;11.900;2022-12-20T04:49:28;56.60;;;34.10;;
11620;SDS011;5866;49.094;11.900;2022-12-20T04:51:56;54.10;;;31.87;;
11620;SDS011;5866;49.094;11.900;2022-12-20T04:54:44;51.37;;;27.63;;
11620;SDS011;5866;49.094;11.900;2022-12-20T04:57:12;47.93;;;28.20;;
11620;SDS011;5866;49.094;11.900;2022-12-20T04:59:40;50.53;;;27.60;;
11620;SDS011;5866;49.094;11.900;2022-12-20T05:02:08;56.40;;;30.47;;
11620;SDS011;5866;49.094;11.900;2022-12-20T05:04:35;51.67;;;33.03;;
11620;SDS011;5866;49.094;11.900;2022-12-20T05:07:03;50.90;;;30.67;;
11620;SDS011;5866;49.094;11.900;2022-12-20T05:09:31;56.03;;;35.50;;
11620;SDS011;5866;49.094;11.900;2022-12-20T05:11:58;54.63;;;38.53;;
11620;SDS011;5866;49.094;11.900;2022-12-20T05:14:27;50.53;;;28.30;;
11620;SDS011;5866;49.094;11.900;2022-12-20T05:16:55;56.40;;;29.53;;
11620;SDS011;5866;49.094;11.900;2022-12-20T05:19:22;50.50;;;29.57;;
11620;SDS011;5866;49.094;11.900;2022-12-20T05:21:50;54.50;;;29.73;;
11620;SDS011;5866;49.094;11.900;2022-12-20T05:24:35;50.57;;;28.93;;
11620;SDS011;5866;49.094;11.900;2022-12-20T05:27:20;54.03;;;27.33;;
11620;SDS011;5866;49.094;11.900;2022-12-20T05:29:49;49.93;;;28.47;;
11620;SDS011;5866;49.094;11.900;2022-12-20T05:32:17;53.27;;;28.83;;
11620;SDS011;5866;49.094;11.900;2022-12-20T05:34:44;48.83;;;26.70;;
11620;SDS011;5866;49.094;11.900;2022-12-20T05:37:12;52.47;;;29.97;;
11620;SDS011;5866;49.094;11.900;2022-12-20T05:39:39;46.17;;;28.90;;
11620;SDS011;5866;49.094;11.900;2022-12-20T05:42:08;52.07;;;29.40;;
11620;SDS011;5866;49.094;11.900;2022-12-20T05:44:36;48.97;;;30.03;;
11620;SDS011;5866;49.094;11.900;2022-12-20T05:47:05;47.47;;;25.43;;
11620;SDS011;5866;49.094;11.900;2022-12-20T05:49:33;47.43;;;27.97;;
11620;SDS011;5866;49.094;11.900;2022-12-20T05:52:02;49.70;;;28.40;;
11620;SDS011;5866;49.094;11.900;2022-12-20T05:54:30;53.53;;;36.33;;
11620;SDS011;5866;49.094;11.900;2022-12-20T05:56:57;53.23;;;33.87;;
11620;SDS011;5866;49.094;11.900;2022-12-20T05:59:25;52.37;;;31.27;;
11620;SDS011;5866;49.094;11.900;2022-12-20T06:01:52;50.97;;;33.17;;
11620;SDS011;5866;49.094;11.900;2022-12-20T06:04:22;61.13;;;47.73;;
11620;SDS011;5866;49.094;11.900;2022-12-20T06:06:50;57.67;;;30.27;;
11620;SDS011;5866;49.094;11.900;2022-12-20T06:09:18;49.67;;;33.00;;
11620;SDS011;5866;49.094;11.900;2022-12-20T06:11:45;53.13;;;33.67;;
11620;SDS011;5866;49.094;11.900;2022-12-20T06:14:13;49.00;;;26.63;;
11620;SDS011;5866;49.094;11.900;2022-12-20T06:16:41;51.70;;;27.03;;
11620;SDS011;5866;49.094;11.900;2022-12-20T06:19:08;49.77;;;30.87;;
11620;SDS011;5866;49.094;11.900;2022-12-20T06:21:45;49.10;;;28.47;;
11620;SDS011;5866;49.094;11.900;2022-12-20T06:24:13;49.13;;;28.37;;
11620;SDS011;5866;49.094;11.900;2022-12-20T06:26:40;55.53;;;29.23;;
11620;SDS011;5866;49.094;11.900;2022-12-20T06:29:08;55.87;;;29.03;;
11620;SDS011;5866;49.094;11.900;2022-12-20T06:31:39;53.70;;;26.40;;
11620;SDS011;5866;49.094;11.900;2022-12-20T06:34:07;44.43;;;24.40;;
11620;SDS011;5866;49.094;11.900;2022-12-20T06:36:34;51.43;;;28.13;;
11620;SDS011;5866;49.094;11.900;2022-12-20T06:39:03;46.63;;;26.37;;
11620;SDS011;5866;49.094;11.900;2022-12-20T06:41:35;56.47;;;26.97;;
11620;SDS011;5866;49.094;11.900;2022-12-20T06:44:02;50.53;;;27.27;;
11620;SDS011;5866;49.094;11.900;2022-12-20T06:46:30;45.93;;;26.23;;
11620;SDS011;5866;49.094;11.900;2022-12-20T06:48:57;55.47;;;27.47;;
11620;SDS011;5866;49.094;11.900;2022-12-20T06:51:25;50.33;;;29.10;;
11620;SDS011;5866;49.094;11.900;2022-12-20T06:53:53;47.17;;;27.43;;
11620;SDS011;5866;49.094;11.900;2022-12-20T06:56:21;49.53;;;25.97;;
11620;SDS011;5866;49.094;11.900;2022-12-20T06:58:49;56.20;;;28.17;;
11620;SDS011;5866;49.094;11.900;2022-12-20T07:01:16;51.37;;;25.50;;
11620;SDS011;5866;49.094;11.900;2022-12-20T07:03:45;49.57;;;27.67;;
11620;SDS011;5866;49.094;11.900;2022-12-20T07:06:12;52.53;;;27.90;;
11620;SDS011;5866;49.094;11.900;2022-12-20T07:08:40;48.20;;;26.33;;
11620;SDS011;5866;49.094;11.900;2022-12-20T07:11:07;53.67;;;28.77;;
11620;SDS011;5866;49.094;11.900;2022-12-20T07:13:37;41.30;;;23.83;;
11620;SDS011;5866;49.094;11.900;2022-12-20T07:16:04;51.87;;;26.67;;
11620;SDS011;5866;49.094;11.900;2022-12-20T07:18:32;51.03;;;28.17;;
11620;SDS011;5866;49.094;11.900;2022-12-20T07:21:02;54.03;;;29.60;;
11620;SDS011;5866;49.094;11.900;2022-12-20T07:23:32;48.40;;;28.00;;
11620;SDS011;5866;49.094;11.900;2022-12-20T07:26:00;53.33;;;28.90;;
11620;SDS011;5866;49.094;11.900;2022-12-20T07:28:29;37.27;;;19.83;;
11620;SDS011;5866;49.094;11.900;2022-12-20T07:31:00;50.70;;;29.80;;
11620;SDS011;5866;49.094;11.900;2022-12-20T07:33:28;41.57;;;25.03;;
11620;SDS011;5866;49.094;11.900;2022-12-20T07:36:01;52.60;;;31.23;;
11620;SDS011;5866;49.094;11.900;2022-12-20T07:38:29;50.07;;;27.87;;
11620;SDS011;5866;49.094;11.900;2022-12-20T07:40:56;52.60;;;30.37;;
11620;SDS011;5866;49.094;11.900;2022-12-20T07:43:24;50.70;;;27.37;;
11620;SDS011;5866;49.094;11.900;2022-12-20T07:45:53;33.93;;;20.13;;
11620;SDS011;5866;49.094;11.900;2022-12-20T07:48:23;48.37;;;27.83;;
11620;SDS011;5866;49.094;11.900;2022-12-20T07:50:51;49.60;;;29.70;;
11620;SDS011;5866;49.094;11.900;2022-12-20T07:53:19;49.23;;;28.03;;
11620;SDS011;5866;49.094;11.900;2022-12-20T07:55:49;53.77;;;26.73;;
11620;SDS011;5866;49.094;11.900;2022-12-20T07:58:17;47.73;;;25.63;;
11620;SDS011;5866;49.094;11.900;2022-12-20T08:00:45;44.40;;;25.93;;
11620;SDS011;5866;49.094;11.900;2022-12-20T08:03:14;45.50;;;25.73;;
11620;SDS011;5866;49.094;11.900;2022-12-20T08:05:48;44.03;;;26.30;;
11620;SDS011;5866;49.094;11.900;2022-12-20T08:08:19;43.37;;;24.73;;
11620;SDS011;5866;49.094;11.900;2022-12-20T08:10:47;45.30;;;24.33;;
11620;SDS011;5866;49.094;11.900;2022-12-20T08:13:16;44.97;;;24.53;;
11620;SDS011;5866;49.094;11.900;2022-12-20T08:15:44;44.53;;;24.97;;
11620;SDS011;5866;49.094;11.900;2022-12-20T08:18:12;48.87;;;25.70;;
11620;SDS011;5866;49.094;11.900;2022-12-20T08:20:41;46.50;;;26.70;;
11620;SDS011;5866;49.094;11.900;2022-12-20T08:23:10;49.07;;;25.57;;
11620;SDS011;5866;49.094;11.900;2022-12-20T08:25:37;48.87;;;26.67;;
11620;SDS011;5866;49.094;11.900;2022-12-20T08:28:07;41.90;;;22.97;;
11620;SDS011;5866;49.094;11.900;2022-12-20T08:30:35;50.47;;;27.93;;
11620;SDS011;5866;49.094;11.900;2022-12-20T08:33:03;52.00;;;27.37;;
11620;SDS011;5866;49.094;11.900;2022-12-20T08:35:31;51.90;;;26.43;;
11620;SDS011;5866;49.094;11.900;2022-12-20T08:37:59;47.63;;;25.50;;
11620;SDS011;5866;49.094;11.900;2022-12-20T08:40:28;47.97;;;25.30;;
11620;SDS011;5866;49.094;11.900;2022-12-20T08:42:55;46.87;;;26.17;;
11620;SDS011;5866;49.094;11.900;2022-12-20T08:45:30;48.83;;;27.10;;
11620;SDS011;5866;49.094;11.900;2022-12-20T08:47:57;46.63;;;33.63;;
11620;SDS011;5866;49.094;11.900;2022-12-20T08:50:25;43.57;;;25.93;;
11620;SDS011;5866;49.094;11.900;2022-12-20T08:52:53;48.10;;;28.63;;
11620;SDS011;5866;49.094;11.900;2022-12-20T08:55:21;47.57;;;27.30;;
11620;SDS011;5866;49.094;11.900;2022-12-20T08:57:56;42.67;;;25.37;;
11620;SDS011;5866;49.094;11.900;2022-12-20T09:00:23;50.37;;;32.97;;
11620;SDS011;5866;49.094;11.900;2022-12-20T09:02:52;41.03;;;28.73;;
11620;SDS011;5866;49.094;11.900;2022-12-20T09:05:20;42.33;;;24.83;;
11620;SDS011;5866;49.094;11.900;2022-12-20T09:07:48;42.20;;;29.83;;
11620;SDS011;5866;49.094;11.900;2022-12-20T09:10:15;48.73;;;40.07;;
11620;SDS011;5866;49.094;11.900;2022-12-20T09:12:43;49.13;;;31.20;;
11620;SDS011;5866;49.094;11.900;2022-12-20T09:15:12;39.93;;;27.73;;
11620;SDS011;5866;49.094;11.900;2022-12-20T09:17:40;43.77;;;34.23;;
11620;SDS011;5866;49.094;11.900;2022-12-20T09:20:07;47.03;;;36.33;;
11620;SDS011;5866;49.094;11.900;2022-12-20T09:22:35;40.60;;;35.13;;
11620;SDS011;5866;49.094;11.900;2022-12-20T09:25:03;40.20;;;28.93;;
11620;SDS011;5866;49.094;11.900;2022-12-20T09:27:32;45.10;;;28.90;;
11620;SDS011;5866;49.094;11.900;2022-12-20T09:29:59;39.97;;;25.27;;
11620;SDS011;5866;49.094;11.900;2022-12-20T09:32:28;42.50;;;23.97;;
11620;SDS011;5866;49.094;11.900;2022-12-20T09:34:56;43.00;;;29.97;;
11620;SDS011;5866;49.094;11.900;2022-12-20T09:37:23;43.97;;;29.63;;
11620;SDS011;5866;49.094;11.900;2022-12-20T09:39:51;38.53;;;30.17;;
11620;SDS011;5866;49.094;11.900;2022-12-20T09:42:18;41.77;;;28.17;;
11620;SDS011;5866;49.094;11.900;2022-12-20T09:44:51;38.10;;;23.43;;
11620;SDS011;5866;49.094;11.900;2022-12-20T09:47:20;55.03;;;37.17;;
11620;SDS011;5866;49.094;11.900;2022-12-20T09:49:52;42.57;;;32.37;;
11620;SDS011;5866;49.094;11.900;2022-12-20T09:52:33;43.50;;;33.30;;
11620;SDS011;5866;49.094;11.900;2022-12-20T09:55:15;50.77;;;38.90;;
11620;SDS011;5866;49.094;11.900;2022-12-20T09:57:58;46.47;;;33.50;;
11620;SDS011;5866;49.094;11.900;2022-12-20T10:00:43;44.33;;;39.03;;
11620;SDS011;5866;49.094;11.900;2022-12-20T10:03:20;39.90;;;25.27;;
11620;SDS011;5866;49.094;11.900;2022-12-20T10:05:51;34.20;;;26.37;;
11620;SDS011;5866;49.094;11.900;2022-12-20T10:08:23;43.17;;;31.80;;
11620;SDS011;5866;49.094;11.900;2022-12-20T10:11:04;42.33;;;31.60;;
11620;SDS011;5866;49.094;11.900;2022-12-20T10:13:41;42.43;;;31.23;;
11620;SDS011;5866;49.094;11.900;2022-12-20T10:16:25;46.87;;;36.67;;
11620;SDS011;5866;49.094;11.900;2022-12-20T10:19:04;45.07;;;38.37;;
11620;SDS011;5866;49.094;11.900;2022-12-20T10:21:44;39.07;;;34.27;;
11620;SDS011;5866;49.094;11.900;2022-12-20T10:24:18;39.77;;;33.00;;
11620;SDS011;5866;49.094;11.900;2022-12-20T10:26:48;35.37;;;29.07;;
11620;SDS011;5866;49.094;11.900;2022-12-20T10:29:17;49.17;;;42.43;;
11620;SDS011;5866;49.094;11.900;2022-12-20T10:31:46;48.07;;;42.97;;
11620;SDS011;5866;49.094;11.900;2022-12-20T10:34:15;45.50;;;38.63;;
11620;SDS011;5866;49.094;11.900;2022-12-20T10:36:44;48.90;;;40.20;;
11620;SDS011;5866;49.094;11.900;2022-12-20T10:39:12;40.10;;;29.87;;
11620;SDS011;5866;49.094;11.900;2022-12-20T10:41:46;34.20;;;19.90;;
11620;SDS011;5866;49.094;11.900;2022-12-20T10:44:17;51.00;;;45.30;;
11620;SDS011;5866;49.094;11.900;2022-12-20T10:46:50;46.37;;;41.53;;
11620;SDS011;5866;49.094;11.900;2022-12-20T10:49:29;56.73;;;51.33;;
11620;SDS011;5866;49.094;11.900;2022-12-20T10:52:00;40.53;;;33.37;;
11620;SDS011;5866;49.094;11.900;2022-12-20T10:54:30;38.13;;;23.77;;
11620;SDS011;5866;49.094;11.900;2022-12-20T10:57:00;44.20;;;37.77;;
11620;SDS011;5866;49.094;11.900;2022-12-20T10:59:41;37.20;;;32.03;;
11620;SDS011;5866;49.094;11.900;2022-12-20T11:02:24;31.70;;;22.30;;
11620;SDS011;5866;49.094;11.900;2022-12-20T11:05:16;32.53;;;19.73;;
11620;SDS011;5866;49.094;11.900;2022-12-20T11:07:53;32.37;;;19.20;;
11620;SDS011;5866;49.094;11.900;2022-12-20T11:10:43;34.43;;;19.77;;
11620;SDS011;5866;49.094;11.900;2022-12-20T11:13:18;34.93;;;21.07;;
11620;SDS011;5866;49.094;11.900;2022-12-20T11:15:48;30.40;;;17.90;;
11620;SDS011;5866;49.094;11.900;2022-12-20T11:18:18;34.43;;;26.27;;
11620;SDS011;5866;49.094;11.900;2022-12-20T11:20:50;33.90;;;24.20;;
11620;SDS011;5866;49.094;11.900;2022-12-20T11:23:28;30.93;;;18.30;;
11620;SDS011;5866;49.094;11.900;2022-12-20T11:26:10;27.93;;;17.17;;
11620;SDS011;5866;49.094;11.900;2022-12-20T11:28:54;31.67;;;19.07;;
11620;SDS011;5866;49.094;11.900;2022-12-20T11:31:36;26.97;;;16.37;;
11620;SDS011;5866;49.094;11.900;2022-12-20T11:34:18;30.20;;;16.67;;
11620;SDS011;5866;49.094;11.900;2022-12-20T11:36:58;31.93;;;17.47;;
11620;SDS011;5866;49.094;11.900;2022-12-20T11:39:43;31.10;;;17.73;;
11620;SDS011;5866;49.094;11.900;2022-12-20T11:42:22;31.23;;;16.77;;
11620;SDS011;5866;49.094;11.900;2022-12-20T11:45:01;31.43;;;17.37;;
11620;SDS011;5866;49.094;11.900;2022-12-20T11:47:43;27.90;;;15.07;;
11620;SDS011;5866;49.094;11.900;2022-12-20T11:50:29;30.33;;;17.07;;
11620;SDS011;5866;49.094;11.900;2022-12-20T11:53:06;28.60;;;17.60;;
11620;SDS011;5866;49.094;11.900;2022-12-20T11:55:41;33.03;;;19.10;;
11620;SDS011;5866;49.094;11.900;2022-12-20T11:58:14;34.67;;;20.23;;
11620;SDS011;5866;49.094;11.900;2022-12-20T12:00:49;40.33;;;20.10;;
11620;SDS011;5866;49.094;11.900;2022-12-20T12:03:22;30.13;;;21.70;;
11620;SDS011;5866;49.094;11.900;2022-12-20T12:05:55;32.83;;;20.93;;
11620;SDS011;5866;49.094;11.900;2022-12-20T12:08:28;32.63;;;19.17;;
11620;SDS011;5866;49.094;11.900;2022-12-20T12:11:07;35.70;;;22.40;;
11620;SDS011;5866;49.094;11.900;2022-12-20T12:14:00;34.27;;;22.50;;
11620;SDS011;5866;49.094;11.900;2022-12-20T12:16:31;37.40;;;28.60;;
11620;SDS011;5866;49.094;11.900;2022-12-20T12:19:02;38.40;;;26.30;;
11620;SDS011;5866;49.094;11.900;2022-12-20T12:21:30;33.77;;;23.03;;
11620;SDS011;5866;49.094;11.900;2022-12-20T12:24:04;36.50;;;21.53;;
11620;SDS011;5866;49.094;11.900;2022-12-20T12:26:39;34.00;;;25.57;;
11620;SDS011;5866;49.094;11.900;2022-12-20T12:29:09;33.67;;;19.77;;
11620;SDS011;5866;49.094;11.900;2022-12-20T12:31:40;34.23;;;20.70;;
11620;SDS011;5866;49.094;11.900;2022-12-20T12:34:14;33.43;;;18.70;;
11620;SDS011;5866;49.094;11.900;2022-12-20T12:37:06;26.37;;;18.10;;
11620;SDS011;5866;49.094;11.900;2022-12-20T12:40:05;34.43;;;21.93;;
11620;SDS011;5866;49.094;11.900;2022-12-20T12:45:53;28.23;;;18.17;;
11620;SDS011;5866;49.094;11.900;2022-12-20T12:48:26;34.80;;;24.27;;
11620;SDS011;5866;49.094;11.900;2022-12-20T12:51:01;34.20;;;24.73;;
11620;SDS011;5866;49.094;11.900;2022-12-20T12:53:31;35.10;;;27.30;;
11620;SDS011;5866;49.094;11.900;2022-12-20T12:59:23;31.40;;;19.30;;
11620;SDS011;5866;49.094;11.900;2022-12-20T13:05:33;35.40;;;24.60;;
11620;SDS011;5866;49.094;11.900;2022-12-20T13:08:02;36.73;;;26.27;;
11620;SDS011;5866;49.094;11.900;2022-12-20T13:13:34;44.13;;;30.77;;
11620;SDS011;5866;49.094;11.900;2022-12-20T13:16:09;34.97;;;23.97;;
11620;SDS011;5866;49.094;11.900;2022-12-20T13:21:38;34.30;;;20.40;;
11620;SDS011;5866;49.094;11.900;2022-12-20T13:27:14;37.43;;;19.43;;
11620;SDS011;5866;49.094;11.900;2022-12-20T13:29:51;32.53;;;17.90;;
11620;SDS011;5866;49.094;11.900;2022-12-20T13:32:50;40.53;;;18.07;;
11620;SDS011;5866;49.094;11.900;2022-12-20T13:35:30;33.47;;;18.37;;
11620;SDS011;5866;49.094;11.900;2022-12-20T13:41:24;36.53;;;19.80;;
11620;SDS011;5866;49.094;11.900;2022-12-20T13:44:07;34.87;;;18.90;;
11620;SDS011;5866;49.094;11.900;2022-12-20T13:46:46;30.63;;;19.17;;
11620;SDS011;5866;49.094;11.900;2022-12-20T13:49:20;41.67;;;20.80;;
11620;SDS011;5866;49.094;11.900;2022-12-20T13:52:06;38.17;;;25.73;;
11620;SDS011;5866;49.094;11.900;2022-12-20T13:54:43;31.37;;;20.47;;
11620;SDS011;5866;49.094;11.900;2022-12-20T13:57:14;38.97;;;25.23;;
11620;SDS011;5866;49.094;11.900;2022-12-20T13:59:44;32.07;;;19.33;;
11620;SDS011;5866;49.094;11.900;2022-12-20T14:02:17;28.93;;;20.73;;
11620;SDS011;5866;49.094;11.900;2022-12-20T14:04:50;41.27;;;32.20;;
11620;SDS011;5866;49.094;11.900;2022-12-20T14:07:25;39.40;;;26.20;;
11620;SDS011;5866;49.094;11.900;2022-12-20T14:09:56;39.33;;;24.23;;
11620;SDS011;5866;49.094;11.900;2022-12-20T14:12:26;36.70;;;23.57;;
11620;SDS011;5866;49.094;11.900;2022-12-20T14:15:02;41.10;;;26.07;;
11620;SDS011;5866;49.094;11.900;2022-12-20T14:17:47;39.23;;;29.67;;
11620;SDS011;5866;49.094;11.900;2022-12-20T14:20:15;40.63;;;29.73;;
11620;SDS011;5866;49.094;11.900;2022-12-20T14:22:52;45.97;;;31.60;;
11620;SDS011;5866;49.094;11.900;2022-12-20T14:25:34;40.07;;;31.37;;
11620;SDS011;5866;49.094;11.900;2022-12-20T14:28:09;44.97;;;34.37;;
11620;SDS011;5866;49.094;11.900;2022-12-20T14:30:52;44.93;;;36.07;;
11620;SDS011;5866;49.094;11.900;2022-12-20T14:33:21;43.23;;;33.97;;
11620;SDS011;5866;49.094;11.900;2022-12-20T14:35:55;45.77;;;35.43;;
11620;SDS011;5866;49.094;11.900;2022-12-20T14:38:28;47.83;;;33.77;;
11620;SDS011;5866;49.094;11.900;2022-12-20T14:40:56;42.40;;;31.93;;
11620;SDS011;5866;49.094;11.900;2022-12-20T14:43:25;46.57;;;33.50;;
11620;SDS011;5866;49.094;11.900;2022-12-20T14:46:14;44.23;;;29.03;;
11620;SDS011;5866;49.094;11.900;2022-12-20T14:48:44;46.17;;;27.43;;
11620;SDS011;5866;49.094;11.900;2022-12-20T14:51:12;41.93;;;23.80;;
11620;SDS011;5866;49.094;11.900;2022-12-20T14:53:48;44.80;;;25.90;;
11620;SDS011;5866;49.094;11.900;2022-12-20T14:56:19;46.37;;;27.53;;
11620;SDS011;5866;49.094;11.900;2022-12-20T14:59:00;35.20;;;20.30;;
11620;SDS011;5866;49.094;11.900;2022-12-20T15:01:31;40.60;;;23.73;;
11620;SDS011;5866;49.094;11.900;2022-12-20T15:04:17;38.43;;;21.67;;
11620;SDS011;5866;49.094;11.900;2022-12-20T15:06:48;46.63;;;24.20;;
11620;SDS011;5866;49.094;11.900;2022-12-20T15:09:19;46.93;;;26.07;;